Time;durP1;ratioP1;P1;durP2;ratioP2;P2;SDS_P1;SDS_P2;PMS_P1;PMS_P2;Temp;Humidity;BMP_temperature;BMP_pressure;BME280_temperature;BME280_humidity;BME280_pressure;Samples;Min_cycle;Max_cycle;Signal;HPM_P1;HPM_P2
2021/08/25 00:00:30;;;;;;;3.43;3.10;;;18.50;73.80;;;;;;6314432;28;20484;-64
2021/08/25 00:03:34;;;;;;;4.77;3.20;;;18.40;75.00;;;;;;6314293;28;20460;-64
2021/08/25 00:06:38;;;;;;;2.90;2.70;;;18.30;74.80;;;;;;6307217;28;20495;-64
2021/08/25 00:09:43;;;;;;;2.97;2.60;;;18.30;75.30;;;;;;6313416;28;20462;-64
2021/08/25 00:12:46;;;;;;;4.90;3.23;;;18.20;75.40;;;;;;6311298;28;20469;-64
2021/08/25 00:15:49;;;;;;;4.63;2.90;;;18.20;75.80;;;;;;6310529;28;20541;-64
2021/08/25 00:18:53;;;;;;;4.67;3.10;;;18.20;76.10;;;;;;6312789;28;20525;-64
2021/08/25 00:21:56;;;;;;;3.57;3.27;;;18.10;75.80;;;;;;6307301;28;20478;-63
2021/08/25 00:25:00;;;;;;;3.63;3.17;;;18.00;76.20;;;;;;6315010;28;20465;-63
2021/08/25 00:28:04;;;;;;;3.70;3.10;;;17.90;76.50;;;;;;6312104;28;20541;-63
2021/08/25 00:31:07;;;;;;;4.40;3.00;;;17.90;77.00;;;;;;6313187;28;20480;-63
2021/08/25 00:34:10;;;;;;;4.00;3.30;;;17.90;77.60;;;;;;6309298;28;20490;-64
2021/08/25 00:37:13;;;;;;;6.43;3.43;;;17.80;77.60;;;;;;6324520;28;20484;-63
2021/08/25 00:40:18;;;;;;;2.83;2.60;;;17.80;77.90;;;;;;6326149;28;20495;-64
2021/08/25 00:43:21;;;;;;;3.40;3.10;;;17.60;77.90;;;;;;6326656;28;20469;-63
2021/08/25 00:46:24;;;;;;;4.10;2.97;;;17.60;78.20;;;;;;6325206;28;20479;-64
2021/08/25 00:49:27;;;;;;;3.97;2.90;;;17.40;79.10;;;;;;6326465;28;20460;-64
2021/08/25 00:52:31;;;;;;;3.03;2.77;;;17.20;79.60;;;;;;6325810;28;20991;-64
2021/08/25 00:55:37;;;;;;;2.93;2.73;;;17.00;81.40;;;;;;6326489;28;20465;-65
2021/08/25 00:58:43;;;;;;;3.90;3.47;;;16.90;81.90;;;;;;6325791;28;20503;-63
2021/08/25 01:01:56;;;;;;;3.60;3.30;;;16.90;83.30;;;;;;6326213;28;20973;-65
2021/08/25 01:05:00;;;;;;;5.03;3.50;;;17.00;84.30;;;;;;6325863;28;20476;-64
2021/08/25 01:08:04;;;;;;;6.90;3.27;;;17.00;83.90;;;;;;6325856;28;20491;-64
2021/08/25 01:11:10;;;;;;;3.77;2.80;;;16.90;84.40;;;;;;6325761;28;20521;-65
2021/08/25 01:14:13;;;;;;;4.33;3.37;;;16.90;84.90;;;;;;6325868;28;20910;-63
2021/08/25 01:17:20;;;;;;;3.40;3.10;;;16.90;84.80;;;;;;6325408;28;20798;-64
2021/08/25 01:20:26;;;;;;;3.77;2.97;;;16.90;85.00;;;;;;6325733;28;20460;-64
2021/08/25 01:23:31;;;;;;;3.47;3.17;;;16.80;85.20;;;;;;6325566;28;20424;-64
2021/08/25 01:26:36;;;;;;;4.23;3.43;;;16.90;85.70;;;;;;6325107;28;20844;-65
2021/08/25 01:29:42;;;;;;;4.03;3.50;;;16.90;85.80;;;;;;6325383;28;20471;-64
2021/08/25 01:32:46;;;;;;;3.20;2.90;;;16.80;85.70;;;;;;6325532;28;20530;-64
2021/08/25 01:35:50;;;;;;;4.60;3.73;;;16.80;86.10;;;;;;6325296;28;20581;-64
2021/08/25 01:38:55;;;;;;;3.40;3.10;;;16.70;87.10;;;;;;6324678;28;20473;-64
2021/08/25 01:41:59;;;;;;;4.23;3.40;;;16.70;87.20;;;;;;6325132;28;20803;-65
2021/08/25 01:45:04;;;;;;;5.13;3.73;;;16.60;87.20;;;;;;6324662;28;20476;-64
2021/08/25 01:48:07;;;;;;;3.90;3.60;;;16.50;87.90;;;;;;6324879;28;20813;-65
2021/08/25 01:51:10;;;;;;;3.30;3.00;;;16.40;89.20;;;;;;6324698;28;20476;-65
2021/08/25 01:54:13;;;;;;;4.20;3.80;;;16.40;89.40;;;;;;6324645;28;20985;-64
2021/08/25 01:57:17;;;;;;;3.73;3.40;;;16.40;89.60;;;;;;6324502;28;20496;-64
2021/08/25 02:00:21;;;;;;;4.00;3.20;;;16.40;89.90;;;;;;6324490;28;20495;-64
2021/08/25 02:03:24;;;;;;;4.13;3.60;;;16.40;90.00;;;;;;6324727;28;20553;-66
2021/08/25 02:06:28;;;;;;;5.67;4.17;;;16.40;90.10;;;;;;6324686;28;20475;-64
2021/08/25 02:09:31;;;;;;;3.67;3.23;;;16.40;90.20;;;;;;6325116;28;20475;-65
2021/08/25 02:12:34;;;;;;;3.73;3.43;;;16.30;90.70;;;;;;6324683;28;20464;-65
2021/08/25 02:15:38;;;;;;;3.80;3.50;;;16.30;90.90;;;;;;6324508;28;20479;-64
2021/08/25 02:18:42;;;;;;;4.37;4.03;;;16.20;90.90;;;;;;6324227;28;20633;-65
2021/08/25 02:21:45;;;;;;;4.57;4.17;;;16.10;91.30;;;;;;6324589;28;20473;-65
2021/08/25 02:24:48;;;;;;;4.87;3.93;;;16.10;91.70;;;;;;6324350;28;20472;-65
2021/08/25 02:27:51;;;;;;;4.37;3.97;;;16.20;91.70;;;;;;6324111;28;20958;-64
2021/08/25 02:30:56;;;;;;;3.77;3.30;;;16.10;91.60;;;;;;6324012;28;20989;-64
2021/08/25 02:33:59;;;;;;;4.00;3.33;;;16.10;91.80;;;;;;6324334;28;20609;-65
2021/08/25 02:37:02;;;;;;;3.50;3.20;;;16.00;91.90;;;;;;6323864;28;20483;-65
2021/08/25 02:40:07;;;;;;;4.20;3.80;;;16.00;92.10;;;;;;6324109;28;20487;-65
2021/08/25 02:43:10;;;;;;;3.80;3.50;;;15.90;92.20;;;;;;6324143;28;20483;-65
2021/08/25 02:46:14;;;;;;;4.20;3.80;;;15.90;92.50;;;;;;6324177;28;20472;-65
2021/08/25 02:49:17;;;;;;;4.53;4.10;;;15.80;92.70;;;;;;6324010;28;20548;-65
2021/08/25 02:52:21;;;;;;;4.67;4.27;;;15.80;93.00;;;;;;6323967;28;20483;-64
2021/08/25 02:55:24;;;;;;;4.43;4.03;;;15.70;93.20;;;;;;6324182;28;20471;-65
2021/08/25 02:58:27;;;;;;;5.90;4.30;;;15.70;93.40;;;;;;6323455;28;20491;-64
2021/08/25 03:01:31;;;;;;;4.27;3.37;;;15.70;93.40;;;;;;6323862;28;20472;-65
2021/08/25 03:04:35;;;;;;;4.63;3.60;;;15.70;93.50;;;;;;6324162;28;20804;-65
2021/08/25 03:07:38;;;;;;;4.47;3.93;;;15.70;93.90;;;;;;6323680;28;20487;-65
2021/08/25 03:10:41;;;;;;;4.10;3.80;;;15.70;94.20;;;;;;6325700;28;20472;-65
2021/08/25 03:13:44;;;;;;;3.43;3.23;;;15.70;94.40;;;;;;6328811;28;20471;-65
2021/08/25 03:16:49;;;;;;;4.37;3.90;;;15.70;94.50;;;;;;6328248;28;20479;-64
2021/08/25 03:19:52;;;;;;;4.93;4.53;;;15.60;94.70;;;;;;6328771;28;20479;-64
2021/08/25 03:22:55;;;;;;;4.83;4.43;;;15.50;94.90;;;;;;6328113;28;20475;-63
2021/08/25 03:25:58;;;;;;;4.87;4.27;;;15.40;95.30;;;;;;6328351;28;20546;-64
2021/08/25 03:29:01;;;;;;;4.60;4.20;;;15.40;95.40;;;;;;6328180;28;21036;-64
2021/08/25 03:32:07;;;;;;;4.47;4.07;;;15.40;95.80;;;;;;6328104;28;20980;-63
2021/08/25 03:35:10;;;;;;;5.03;4.10;;;15.50;95.70;;;;;;6318963;28;20487;-64
2021/08/25 03:38:13;;;;;;;4.60;4.30;;;15.40;95.60;;;;;;6327638;28;20542;-64
2021/08/25 03:41:17;;;;;;;6.80;4.03;;;15.40;95.70;;;;;;6327910;28;20476;-64
2021/08/25 03:44:20;;;;;;;5.00;4.30;;;15.50;95.80;;;;;;6327954;28;20451;-64
2021/08/25 03:47:24;;;;;;;6.20;4.37;;;15.30;95.90;;;;;;6328068;28;20520;-64
2021/08/25 03:50:27;;;;;;;5.20;4.40;;;15.20;96.10;;;;;;6328005;28;20444;-64
2021/08/25 03:53:31;;;;;;;4.20;3.90;;;15.20;96.20;;;;;;6328095;28;20451;-64
2021/08/25 03:56:34;;;;;;;5.00;4.60;;;15.10;96.10;;;;;;6327424;28;20448;-64
2021/08/25 03:59:37;;;;;;;5.57;4.67;;;15.10;96.30;;;;;;6327395;28;20782;-64
2021/08/25 04:02:42;;;;;;;7.07;4.37;;;15.00;96.80;;;;;;6327505;28;20460;-64
2021/08/25 04:05:45;;;;;;;4.20;3.80;;;14.90;97.00;;;;;;6327566;28;20479;-64
2021/08/25 04:08:48;;;;;;;5.57;4.97;;;14.90;97.50;;;;;;6327534;28;20480;-64
2021/08/25 04:11:51;;;;;;;5.97;5.37;;;14.80;97.50;;;;;;6327259;28;20540;-66
2021/08/25 04:14:54;;;;;;;8.77;5.13;;;14.80;97.50;;;;;;6327571;28;20475;-64
2021/08/25 04:17:59;;;;;;;4.90;4.40;;;14.80;97.90;;;;;;6326941;28;20551;-65
2021/08/25 04:21:02;;;;;;;6.20;5.33;;;14.70;98.20;;;;;;6327055;28;20854;-65
2021/08/25 04:24:05;;;;;;;6.30;5.70;;;14.70;98.50;;;;;;6326863;28;20831;-65
2021/08/25 04:27:08;;;;;;;5.60;4.90;;;14.80;98.70;;;;;;6327068;28;20483;-61
2021/08/25 04:30:12;;;;;;;7.47;5.40;;;14.80;98.60;;;;;;6326844;28;20476;-62
2021/08/25 04:33:17;;;;;;;6.67;5.63;;;14.90;98.60;;;;;;6327271;28;20502;-62
2021/08/25 04:36:20;;;;;;;9.73;5.70;;;14.90;98.60;;;;;;6326384;28;20480;-61
2021/08/25 04:39:23;;;;;;;8.20;5.57;;;14.90;98.60;;;;;;6326979;28;20468;-62
2021/08/25 04:42:26;;;;;;;5.20;4.70;;;14.90;98.70;;;;;;6326593;28;20471;-62
2021/08/25 04:45:29;;;;;;;5.30;4.90;;;14.90;98.90;;;;;;6326605;28;20472;-65
2021/08/25 04:48:36;;;;;;;8.00;4.90;;;14.90;98.90;;;;;;6326207;28;21035;-65
2021/08/25 04:51:39;;;;;;;6.00;5.50;;;15.00;99.00;;;;;;6326141;28;20813;-64
2021/08/25 04:54:43;;;;;;;5.87;5.23;;;15.00;99.10;;;;;;6326195;28;20980;-64
2021/08/25 04:57:47;;;;;;;8.83;5.50;;;15.00;99.10;;;;;;6325776;28;20543;-60
2021/08/25 05:00:51;;;;;;;5.73;5.23;;;15.00;99.30;;;;;;6326488;28;20483;-61
2021/08/25 05:03:56;;;;;;;5.80;4.87;;;15.10;99.40;;;;;;6326093;28;20475;-65
2021/08/25 05:06:59;;;;;;;5.40;4.90;;;15.10;99.10;;;;;;6325747;28;20479;-65
2021/08/25 05:10:02;;;;;;;5.13;4.73;;;15.20;99.00;;;;;;6325860;28;20479;-64
2021/08/25 05:13:05;;;;;;;5.60;4.60;;;15.20;99.00;;;;;;6325720;28;20989;-65
2021/08/25 05:16:13;;;;;;;5.37;4.73;;;15.20;99.00;;;;;;6325842;28;20468;-64
2021/08/25 05:19:17;;;;;;;5.87;5.27;;;15.30;99.00;;;;;;6325539;28;20491;-64
2021/08/25 05:22:20;;;;;;;9.93;5.23;;;15.40;98.80;;;;;;6324897;28;20810;-64
2021/08/25 05:25:23;;;;;;;5.50;5.00;;;15.50;98.50;;;;;;6325695;28;20472;-64
2021/08/25 05:28:27;;;;;;;5.37;4.87;;;15.60;98.50;;;;;;6324980;28;20480;-64
2021/08/25 05:31:30;;;;;;;5.37;4.87;;;15.70;98.40;;;;;;6325483;28;20475;-64
2021/08/25 05:34:34;;;;;;;8.33;5.07;;;15.70;98.30;;;;;;6324543;28;20483;-60
2021/08/25 05:37:38;;;;;;;7.07;5.20;;;15.80;98.30;;;;;;6325020;28;20472;-60
2021/08/25 05:40:41;;;;;;;7.03;5.43;;;16.00;98.20;;;;;;6325260;28;20467;-60
2021/08/25 05:43:44;;;;;;;5.83;5.27;;;16.10;98.00;;;;;;6325373;28;20957;-60
2021/08/25 05:46:47;;;;;;;5.30;4.80;;;16.40;97.90;;;;;;6325092;28;20471;-60
2021/08/25 05:49:52;;;;;;;6.40;4.87;;;16.80;98.00;;;;;;6324580;28;20604;-60
2021/08/25 05:52:55;;;;;;;4.63;4.23;;;17.50;97.00;;;;;;6324753;28;20784;-60
2021/08/25 05:55:58;;;;;;;5.13;4.63;;;18.20;95.50;;;;;;6324498;28;20512;-60
2021/08/25 05:59:01;;;;;;;9.00;5.43;;;18.90;94.40;;;;;;6324460;28;20476;-60
2021/08/25 06:02:04;;;;;;;9.57;6.80;;;19.50;92.90;;;;;;6324360;28;20483;-60
2021/08/25 06:05:11;;;;;;;8.40;5.90;;;19.80;91.80;;;;;;6324262;28;20553;-60
2021/08/25 06:08:14;;;;;;;6.13;5.53;;;20.60;90.60;;;;;;6274440;28;20238;-60
2021/08/25 06:11:17;;;;;;;6.93;5.23;;;20.70;87.10;;;;;;6274286;28;20530;-60
2021/08/25 06:14:20;;;;;;;5.60;4.87;;;21.30;85.60;;;;;;6282632;28;20205;-59
2021/08/25 06:17:23;;;;;;;7.57;5.80;;;21.80;82.90;;;;;;6324283;28;20230;-59
2021/08/25 06:20:28;;;;;;;5.50;5.00;;;22.10;79.00;;;;;;6321356;28;20190;-60
2021/08/25 06:23:31;;;;;;;5.67;5.00;;;22.70;75.20;;;;;;6273945;28;20228;-60
2021/08/25 06:26:34;;;;;;;4.90;4.50;;;23.40;73.40;;;;;;6275322;28;20220;-60
2021/08/25 06:29:38;;;;;;;4.97;4.53;;;23.90;70.40;;;;;;6306137;28;20237;-60
2021/08/25 06:32:41;;;;;;;5.30;4.80;;;24.40;67.60;;;;;;6312151;28;20218;-59
2021/08/25 06:35:45;;;;;;;6.47;5.67;;;25.20;65.00;;;;;;6314215;28;20226;-59
2021/08/25 06:38:48;;;;;;;9.73;6.27;;;25.50;62.30;;;;;;6335666;28;20222;-59
2021/08/25 06:41:52;;;;;;;7.23;5.90;;;26.00;60.80;;;;;;6329091;28;20699;-59
2021/08/25 06:44:55;;;;;;;9.90;6.13;;;26.80;58.30;;;;;;6315977;28;20663;-60
2021/08/25 06:47:58;;;;;;;6.60;5.97;;;26.80;57.50;;;;;;6328812;28;20683;-60
2021/08/25 06:51:02;;;;;;;6.80;5.20;;;27.30;55.40;;;;;;6329427;28;20225;-60
2021/08/25 06:54:06;;;;;;;8.33;5.40;;;27.80;53.80;;;;;;6328907;28;20240;-60
2021/08/25 06:57:09;;;;;;;5.77;5.00;;;28.50;51.90;;;;;;6328922;28;20229;-60
2021/08/25 07:00:13;;;;;;;5.13;4.70;;;28.60;49.90;;;;;;6328825;28;20290;-60
2021/08/25 07:03:16;;;;;;;5.20;4.80;;;29.00;49.20;;;;;;6329114;28;20242;-60
2021/08/25 07:06:21;;;;;;;7.27;4.83;;;29.90;47.20;;;;;;6329065;28;20228;-60
2021/08/25 07:09:24;;;;;;;4.30;4.00;;;30.60;45.20;;;;;;6328496;28;20713;-60
2021/08/25 07:12:27;;;;;;;5.23;4.17;;;31.10;43.50;;;;;;6328485;28;20248;-60
2021/08/25 07:15:30;;;;;;;4.82;4.25;;;31.90;42.10;;;;;;6328598;28;20229;-60
2021/08/25 07:18:34;;;;;;;5.72;4.20;;;32.60;40.30;;;;;;6328676;28;20233;-60
2021/08/25 07:21:38;;;;;;;5.28;4.78;;;33.10;39.70;;;;;;6328279;28;20229;-60
2021/08/25 07:24:41;;;;;;;5.93;5.30;;;33.40;38.70;;;;;;6328384;28;20237;-61
2021/08/25 07:27:44;;;;;;;7.75;5.05;;;33.30;38.00;;;;;;6328061;28;20338;-61
2021/08/25 07:30:48;;;;;;;5.57;4.95;;;33.30;37.90;;;;;;6328112;28;20225;-60
2021/08/25 07:33:51;;;;;;;5.55;4.38;;;33.80;37.70;;;;;;6328281;28;20245;-60
2021/08/25 07:36:56;;;;;;;5.30;4.22;;;34.50;36.10;;;;;;6327981;28;20241;-60
2021/08/25 07:39:59;;;;;;;5.20;4.68;;;35.10;35.00;;;;;;6327646;28;20691;-61
2021/08/25 07:43:02;;;;;;;5.85;3.72;;;35.70;33.90;;;;;;6327658;28;20310;-60
2021/08/25 07:46:05;;;;;;;5.22;4.50;;;36.30;32.80;;;;;;6327809;28;20683;-59
2021/08/25 07:49:09;;;;;;;5.65;4.57;;;36.50;31.50;;;;;;6322267;28;20575;-59
2021/08/25 07:52:13;;;;;;;6.60;4.32;;;37.20;31.30;;;;;;6327624;28;20244;-61
2021/08/25 07:55:16;;;;;;;5.15;4.63;;;38.10;30.30;;;;;;6326950;28;20587;-61
2021/08/25 07:58:19;;;;;;;4.45;4.03;;;38.40;29.40;;;;;;6327443;28;20241;-59
2021/08/25 08:01:42;;;;;;;4.63;4.22;;;39.10;28.60;;;;;;6327683;28;20252;-59
2021/08/25 08:04:46;;;;;;;4.50;4.10;;;39.40;28.30;;;;;;6327520;28;20226;-59
2021/08/25 08:07:51;;;;;;;5.97;4.50;;;39.70;27.40;;;;;;6327067;28;20237;-59
2021/08/25 08:10:54;;;;;;;5.22;4.80;;;40.00;27.10;;;;;;6327397;28;20600;-59
2021/08/25 08:13:57;;;;;;;4.88;4.43;;;41.00;26.70;;;;;;6326858;28;20551;-59
2021/08/25 08:17:02;;;;;;;5.68;5.18;;;41.80;26.00;;;;;;6327040;28;20233;-60
2021/08/25 08:20:07;;;;;;;4.53;4.13;;;41.00;25.90;;;;;;6326732;28;20230;-59
2021/08/25 08:23:11;;;;;;;4.50;4.10;;;41.80;25.00;;;;;;6326815;28;20290;-60
2021/08/25 08:26:14;;;;;;;4.00;3.65;;;42.90;24.60;;;;;;6326738;28;20233;-60
2021/08/25 08:29:18;;;;;;;4.53;4.15;;;42.90;23.70;;;;;;6326956;28;20225;-60
2021/08/25 08:32:21;;;;;;;5.68;4.07;;;43.10;24.20;;;;;;6326539;28;20293;-59
2021/08/25 08:35:25;;;;;;;4.88;4.38;;;42.80;23.70;;;;;;6332037;27;20206;-60
2021/08/25 08:38:29;;;;;;;5.45;4.95;;;43.60;23.70;;;;;;6337214;27;20217;-60
2021/08/25 08:41:32;;;;;;;5.20;4.75;;;44.00;23.20;;;;;;6337473;28;20654;-60
2021/08/25 08:44:37;;;;;;;4.75;4.32;;;45.00;22.10;;;;;;6338724;27;20257;-60
2021/08/25 08:47:41;;;;;;;4.78;4.32;;;44.70;22.30;;;;;;6338124;28;20709;-60
2021/08/25 08:50:46;;;;;;;7.22;4.63;;;45.80;21.60;;;;;;6333411;27;20232;-60
2021/08/25 08:53:52;;;;;;;4.20;3.90;;;42.20;23.70;;;;;;6327685;28;20865;-59
2021/08/25 08:56:55;;;;;;;5.15;4.70;;;42.60;23.50;;;;;;6342085;27;20894;-59
2021/08/25 09:00:00;;;;;;;4.90;4.40;;;43.60;22.80;;;;;;6332122;27;20599;-59
2021/08/25 09:03:20;;;;;;;4.88;4.10;;;45.00;21.90;;;;;;6334712;27;20253;-59
2021/08/25 09:06:44;;;;;;;4.70;4.07;;;44.80;21.70;;;;;;6334419;28;20222;-59
2021/08/25 09:09:58;;;;;;;4.50;4.15;;;45.50;21.10;;;;;;6334334;27;20737;-60
2021/08/25 09:13:02;;;;;;;5.20;4.80;;;45.70;20.70;;;;;;6333604;28;20223;-60
2021/08/25 09:16:06;;;;;;;5.65;5.15;;;46.10;20.80;;;;;;6335053;27;20236;-59
2021/08/25 09:19:13;;;;;;;5.20;4.70;;;45.50;20.70;;;;;;6336016;28;20230;-60
2021/08/25 09:22:20;;;;;;;5.28;4.78;;;46.00;20.80;;;;;;6334219;27;20609;-60
2021/08/25 09:25:33;;;;;;;5.30;4.80;;;46.20;20.70;;;;;;6332238;28;20222;-59
2021/08/25 09:28:38;;;;;;;4.57;4.18;;;42.90;22.30;;;;;;6323091;28;20559;-60
2021/08/25 09:31:44;;;;;;;5.35;4.85;;;41.80;22.80;;;;;;6323303;28;20229;-61
2021/08/25 09:34:47;;;;;;;5.63;5.10;;;40.80;23.60;;;;;;6323071;28;20226;-60
2021/08/25 09:37:54;;;;;;;5.75;4.85;;;39.20;24.20;;;;;;6322811;28;20241;-59
2021/08/25 09:41:01;;;;;;;5.38;4.88;;;37.80;25.40;;;;;;6322679;28;20232;-59
2021/08/25 09:44:15;;;;;;;5.25;4.80;;;35.80;26.80;;;;;;6322714;28;20294;-59
2021/08/25 09:47:47;;;;;;;5.53;4.82;;;34.50;28.30;;;;;;6334827;28;20210;-59
2021/08/25 09:50:58;;;;;;;5.15;4.72;;;33.30;29.50;;;;;;6333057;27;20233;-59
2021/08/25 09:54:06;;;;;;;5.80;5.20;;;32.10;31.00;;;;;;6333315;28;20221;-59
2021/08/25 09:57:10;;;;;;;7.03;5.47;;;31.10;32.20;;;;;;6325912;28;20224;-59
2021/08/25 10:00:14;;;;;;;6.57;5.97;;;30.50;33.20;;;;;;6347315;27;20229;-59
2021/08/25 10:03:18;;;;;;;5.93;5.33;;;30.00;33.40;;;;;;6328259;28;20427;-59
2021/08/25 10:06:24;;;;;;;6.33;5.50;;;29.70;34.40;;;;;;6321714;28;20226;-59
2021/08/25 10:09:27;;;;;;;6.70;5.57;;;29.00;35.60;;;;;;6322416;28;20229;-61
2021/08/25 10:12:32;;;;;;;7.93;5.47;;;28.40;36.20;;;;;;6322213;28;20221;-60
2021/08/25 10:15:48;;;;;;;4.87;4.43;;;27.80;37.30;;;;;;6321985;28;20229;-59
2021/08/25 10:18:51;;;;;;;7.37;5.40;;;27.70;38.10;;;;;;6321790;28;20248;-59
2021/08/25 10:21:55;;;;;;;5.97;5.17;;;28.10;38.40;;;;;;6322178;28;20240;-60
2021/08/25 10:25:06;;;;;;;5.60;5.00;;;27.90;37.90;;;;;;6322116;28;20230;-60
2021/08/25 10:28:11;;;;;;;6.43;5.07;;;27.20;39.30;;;;;;6321911;28;20226;-60
2021/08/25 10:31:14;;;;;;;6.43;5.80;;;27.30;39.60;;;;;;6321754;28;20694;-60
2021/08/25 10:34:20;;;;;;;6.47;5.40;;;27.30;39.40;;;;;;6321769;28;20919;-61
2021/08/25 10:37:29;;;;;;;6.03;5.10;;;27.20;39.60;;;;;;6321565;28;20257;-60
2021/08/25 10:40:33;;;;;;;7.23;6.53;;;27.30;39.20;;;;;;6321706;28;20245;-60
2021/08/25 10:43:41;;;;;;;6.67;5.60;;;27.30;39.10;;;;;;6321633;28;20252;-60
2021/08/25 10:46:48;;;;;;;6.77;5.67;;;27.60;39.40;;;;;;6321749;28;20241;-61
2021/08/25 10:50:09;;;;;;;6.03;5.43;;;27.50;39.70;;;;;;6321556;28;20686;-60
2021/08/25 10:53:35;;;;;;;7.40;5.50;;;27.40;39.50;;;;;;6321690;28;20642;-61
2021/08/25 10:56:41;;;;;;;6.77;6.07;;;27.40;39.40;;;;;;6316682;28;20266;-62
2021/08/25 10:59:46;;;;;;;6.20;5.57;;;27.20;39.60;;;;;;6316956;28;20237;-60
2021/08/25 11:02:49;;;;;;;5.90;5.20;;;27.10;39.70;;;;;;6306365;28;20241;-60
2021/08/25 11:05:53;;;;;;;7.40;5.70;;;26.80;40.30;;;;;;6311061;28;20233;-60
2021/08/25 11:09:17;;;;;;;7.13;5.50;;;26.60;40.90;;;;;;6323773;27;20244;-60
2021/08/25 11:12:21;;;;;;;6.80;5.30;;;26.30;41.30;;;;;;6326722;28;20217;-60
2021/08/25 11:15:33;;;;;;;8.77;5.83;;;26.60;41.00;;;;;;6331605;28;20243;-61
2021/08/25 11:18:36;;;;;;;6.73;5.33;;;25.70;41.80;;;;;;6333841;27;20279;-60
2021/08/25 11:21:41;;;;;;;6.57;5.90;;;25.30;42.70;;;;;;6331940;28;20217;-61
2021/08/25 11:24:47;;;;;;;7.20;6.10;;;25.30;43.20;;;;;;6323016;28;20230;-60
2021/08/25 11:27:52;;;;;;;7.87;6.00;;;25.50;43.20;;;;;;6320650;28;20574;-60
2021/08/25 11:30:58;;;;;;;7.17;5.70;;;25.60;42.60;;;;;;6321567;28;20710;-60
2021/08/25 11:34:02;;;;;;;7.00;6.30;;;25.40;43.10;;;;;;6325575;28;20229;-60
2021/08/25 11:37:05;;;;;;;8.23;5.37;;;25.10;43.20;;;;;;6325848;28;20245;-61
2021/08/25 11:40:09;;;;;;;6.83;5.30;;;25.30;43.50;;;;;;6325612;28;20323;-60
2021/08/25 11:43:14;;;;;;;6.97;6.27;;;25.40;43.60;;;;;;6325878;28;20229;-61
2021/08/25 11:46:26;;;;;;;7.37;6.23;;;25.60;42.90;;;;;;6326185;28;20279;-61
2021/08/25 11:49:29;;;;;;;5.90;5.23;;;25.80;42.40;;;;;;6325503;28;20683;-61
2021/08/25 11:52:34;;;;;;;8.70;6.00;;;26.20;42.10;;;;;;6325275;28;20281;-60
2021/08/25 11:55:37;;;;;;;6.90;5.93;;;26.20;41.70;;;;;;6325140;28;20228;-61
2021/08/25 11:58:42;;;;;;;6.73;5.87;;;26.30;41.60;;;;;;6330799;28;20343;-60
2021/08/25 12:01:47;;;;;;;6.77;6.10;;;26.50;41.70;;;;;;6340891;27;20230;-62
2021/08/25 12:04:50;;;;;;;6.77;6.07;;;26.30;41.60;;;;;;6330808;28;20225;-60
2021/08/25 12:08:10;;;;;;;6.77;6.07;;;26.10;41.90;;;;;;6323302;27;20244;-61
2021/08/25 12:11:15;;;;;;;6.20;5.60;;;26.10;42.20;;;;;;6324969;28;20233;-60
2021/08/25 12:14:18;;;;;;;7.63;6.63;;;26.10;41.90;;;;;;6324416;28;20237;-61
2021/08/25 12:17:23;;;;;;;7.80;6.97;;;26.10;42.40;;;;;;6324197;28;20233;-61
2021/08/25 12:20:35;;;;;;;7.17;6.47;;;26.10;41.50;;;;;;6324735;28;20202;-60
2021/08/25 12:23:55;;;;;;;9.47;6.67;;;25.90;42.20;;;;;;6324838;28;20194;-61
2021/08/25 12:26:58;;;;;;;6.70;6.00;;;25.80;42.40;;;;;;6324147;28;20230;-60
2021/08/25 12:30:01;;;;;;;6.57;5.87;;;25.70;42.30;;;;;;6324895;28;20229;-61
2021/08/25 12:33:07;;;;;;;6.70;5.90;;;25.50;42.60;;;;;;6326521;28;20729;-59
2021/08/25 12:36:24;;;;;;;7.87;6.30;;;25.10;43.50;;;;;;6341526;27;20717;-60
2021/08/25 12:39:28;;;;;;;10.13;6.13;;;24.80;44.20;;;;;;6333562;27;20226;-59
2021/08/25 12:42:31;;;;;;;6.47;5.87;;;24.60;44.20;;;;;;6336845;28;20218;-59
2021/08/25 12:45:35;;;;;;;7.00;5.97;;;24.90;44.40;;;;;;6336466;27;20254;-59
2021/08/25 12:48:40;;;;;;;9.30;6.90;;;25.00;44.00;;;;;;6335775;28;20263;-58
2021/08/25 12:51:43;;;;;;;7.90;6.10;;;25.00;43.80;;;;;;6337172;27;20710;-58
2021/08/25 12:54:46;;;;;;;7.73;6.40;;;25.20;43.40;;;;;;6322536;28;20226;-58
2021/08/25 12:57:50;;;;;;;8.77;6.80;;;25.30;43.70;;;;;;6320924;28;20245;-58
2021/08/25 13:00:53;;;;;;;7.00;5.53;;;25.20;43.40;;;;;;6298437;28;20230;-58
2021/08/25 13:03:58;;;;;;;6.13;5.53;;;25.40;43.20;;;;;;6305168;28;20297;-58
2021/08/25 13:07:01;;;;;;;9.30;6.97;;;25.40;43.20;;;;;;6298217;28;20230;-59
2021/08/25 13:10:06;;;;;;;7.57;6.27;;;25.20;43.70;;;;;;6293801;28;20295;-59
2021/08/25 13:13:09;;;;;;;8.07;6.10;;;25.20;43.70;;;;;;6298153;28;20274;-59
2021/08/25 13:16:14;;;;;;;8.70;6.03;;;25.00;43.60;;;;;;6298446;28;20222;-59
2021/08/25 13:19:19;;;;;;;7.83;5.87;;;25.00;43.80;;;;;;6297774;28;20249;-59
2021/08/25 13:22:22;;;;;;;8.53;5.77;;;25.20;43.60;;;;;;6298031;28;20231;-59
2021/08/25 13:25:25;;;;;;;6.17;5.43;;;25.00;44.50;;;;;;6297609;28;20234;-59
2021/08/25 13:28:29;;;;;;;7.40;5.97;;;25.10;44.20;;;;;;6306605;28;20225;-59
2021/08/25 13:31:32;;;;;;;8.00;5.57;;;24.70;45.10;;;;;;6322687;28;20253;-59
2021/08/25 13:34:37;;;;;;;7.10;6.23;;;24.50;44.90;;;;;;6323151;28;20233;-60
2021/08/25 13:37:40;;;;;;;7.70;5.90;;;24.50;45.10;;;;;;6322526;28;20237;-61
2021/08/25 13:40:43;;;;;;;8.83;6.87;;;23.90;45.60;;;;;;6322966;28;20283;-61
2021/08/25 13:43:46;;;;;;;7.97;6.10;;;24.00;45.90;;;;;;6322515;28;20667;-61
2021/08/25 13:46:49;;;;;;;12.13;6.63;;;24.00;45.40;;;;;;6322522;28;20229;-61
2021/08/25 13:49:54;;;;;;;8.30;6.47;;;23.90;46.40;;;;;;6322603;28;20226;-61
2021/08/25 13:52:57;;;;;;;6.83;5.87;;;23.90;46.30;;;;;;6322375;28;20611;-61
2021/08/25 13:56:00;;;;;;;6.90;6.20;;;24.10;46.50;;;;;;6306276;28;20218;-60
2021/08/25 13:59:03;;;;;;;6.30;5.70;;;24.20;46.10;;;;;;6296812;28;20250;-61
2021/08/25 14:02:09;;;;;;;9.13;6.80;;;24.30;45.50;;;;;;6304015;28;20226;-61
2021/08/25 14:05:14;;;;;;;7.93;6.17;;;24.20;45.70;;;;;;6344308;28;20673;-61
2021/08/25 14:08:18;;;;;;;7.83;6.13;;;23.90;45.40;;;;;;6347739;27;20649;-61
2021/08/25 14:11:21;;;;;;;7.13;6.43;;;23.70;46.30;;;;;;6346722;28;20221;-62
2021/08/25 14:14:24;;;;;;;8.73;6.40;;;23.70;47.00;;;;;;6332888;27;20218;-65
2021/08/25 14:17:27;;;;;;;6.33;5.73;;;23.60;46.70;;;;;;6335609;27;20206;-64
2021/08/25 14:20:32;;;;;;;6.67;5.83;;;23.40;46.90;;;;;;6344870;27;20193;-64
2021/08/25 14:23:36;;;;;;;7.00;6.20;;;23.10;47.50;;;;;;6347599;27;20189;-64
2021/08/25 14:26:39;;;;;;;8.33;5.63;;;23.00;47.20;;;;;;6348273;27;20230;-64
2021/08/25 14:29:43;;;;;;;10.83;6.40;;;23.20;47.60;;;;;;6332665;28;20238;-65
2021/08/25 14:32:46;;;;;;;7.57;5.80;;;23.10;47.10;;;;;;6322446;28;20237;-67
2021/08/25 14:35:55;;;;;;;7.90;5.97;;;23.00;47.40;;;;;;6321844;28;20226;-65
2021/08/25 14:38:58;;;;;;;7.60;5.83;;;22.80;48.20;;;;;;6321558;28;20691;-64
2021/08/25 14:42:02;;;;;;;8.03;6.33;;;22.70;48.40;;;;;;6321595;28;20226;-64
2021/08/25 14:45:06;;;;;;;7.73;6.47;;;22.70;48.30;;;;;;6333210;28;20222;-64
2021/08/25 14:48:15;;;;;;;8.53;5.90;;;22.90;48.40;;;;;;6338874;27;20244;-65
2021/08/25 14:51:19;;;;;;;7.60;5.87;;;23.00;47.60;;;;;;6321475;28;20585;-64
2021/08/25 14:54:22;;;;;;;6.60;5.50;;;23.10;47.50;;;;;;6329907;28;20222;-65
2021/08/25 14:57:25;;;;;;;8.40;6.73;;;23.00;47.80;;;;;;6326794;27;20233;-66
2021/08/25 15:00:31;;;;;;;8.97;6.60;;;22.90;47.40;;;;;;6340727;27;20730;-64
2021/08/25 15:03:35;;;;;;;8.10;6.33;;;22.90;47.80;;;;;;6325027;28;20766;-65
2021/08/25 15:06:40;;;;;;;7.07;5.87;;;23.00;47.80;;;;;;6323686;28;20230;-65
2021/08/25 15:09:44;;;;;;;7.20;5.57;;;22.80;48.30;;;;;;6326176;27;20582;-65
2021/08/25 15:12:47;;;;;;;10.10;6.00;;;22.70;48.40;;;;;;6326740;28;20237;-65
2021/08/25 15:15:50;;;;;;;6.83;5.53;;;22.70;48.70;;;;;;6321016;28;20238;-64
2021/08/25 15:18:54;;;;;;;6.27;5.10;;;22.70;48.80;;;;;;6326620;28;20230;-65
2021/08/25 15:21:59;;;;;;;7.00;5.57;;;22.70;49.00;;;;;;6326171;28;20222;-65
2021/08/25 15:25:02;;;;;;;8.23;6.43;;;22.70;48.80;;;;;;6326173;28;20240;-65
2021/08/25 15:28:06;;;;;;;9.93;6.73;;;22.70;49.20;;;;;;6325840;28;20325;-65
2021/08/25 15:31:10;;;;;;;7.57;6.13;;;22.70;49.40;;;;;;6325798;28;20241;-65
2021/08/25 15:34:13;;;;;;;7.70;5.93;;;22.70;49.20;;;;;;6325938;28;20376;-65
2021/08/25 15:37:18;;;;;;;6.87;5.40;;;22.80;49.00;;;;;;6339562;27;20229;-66
2021/08/25 15:40:21;;;;;;;11.43;5.80;;;22.70;49.40;;;;;;6340555;27;20226;-66
2021/08/25 15:43:24;;;;;;;6.97;5.80;;;22.70;49.00;;;;;;6326682;28;20225;-66
2021/08/25 15:46:28;;;;;;;6.20;5.60;;;22.80;49.20;;;;;;6348088;27;20251;-66
2021/08/25 15:49:31;;;;;;;9.43;7.30;;;22.80;49.10;;;;;;6350892;27;20240;-66
2021/08/25 15:52:36;;;;;;;8.93;5.97;;;22.80;48.50;;;;;;6350976;27;20241;-66
2021/08/25 15:55:40;;;;;;;7.67;5.83;;;22.90;48.60;;;;;;6320947;27;20660;-65
2021/08/25 15:58:43;;;;;;;6.00;4.93;;;22.90;48.50;;;;;;6299960;28;20722;-64